createdAt,value
2024-05-09T00:00:10.463Z,11.96
2024-05-09T00:02:44.528Z,11.89
2024-05-09T00:05:15.271Z,11.43
2024-05-09T00:07:45.872Z,11.24
2024-05-09T00:10:25.562Z,11.21
2024-05-09T00:13:03.844Z,11.12
2024-05-09T00:15:34.949Z,11.24
2024-05-09T00:18:08.085Z,11.14
2024-05-09T00:20:41.068Z,11.12
2024-05-09T00:23:13.750Z,11.24
2024-05-09T00:25:48.312Z,11.22
2024-05-09T00:28:18.859Z,10.98
2024-05-09T00:30:49.384Z,10.85
2024-05-09T00:33:20.146Z,10.93
2024-05-09T00:35:50.914Z,10.69
2024-05-09T00:38:22.697Z,10.76
2024-05-09T00:40:55.996Z,10.71
2024-05-09T00:43:26.704Z,10.58
2024-05-09T00:45:57.569Z,10.67
2024-05-09T00:48:30.148Z,10.58
2024-05-09T00:51:01.451Z,10.63
2024-05-09T00:53:32.740Z,10.66
2024-05-09T00:56:08.433Z,10.64
2024-05-09T00:58:39.250Z,10.55
2024-05-09T01:01:11.262Z,10.53
2024-05-09T01:03:41.899Z,10.40
2024-05-09T01:06:12.445Z,10.33
2024-05-09T01:08:45.430Z,10.26
2024-05-09T01:11:18.885Z,10.34
2024-05-09T01:13:49.622Z,10.35
2024-05-09T01:16:20.214Z,10.33
2024-05-09T01:18:51.094Z,10.21
2024-05-09T01:21:21.854Z,10.27
2024-05-09T01:23:55.172Z,10.28
2024-05-09T01:26:25.761Z,10.16
2024-05-09T01:28:56.474Z,10.04
2024-05-09T01:31:27.144Z,9.99
2024-05-09T01:33:57.762Z,9.97
2024-05-09T01:36:28.370Z,10.08
2024-05-09T01:39:01.692Z,9.84
2024-05-09T01:41:32.360Z,9.85
2024-05-09T01:44:03.019Z,9.93
2024-05-09T01:46:33.626Z,9.87
2024-05-09T01:49:04.717Z,9.85
2024-05-09T01:51:35.316Z,9.81
2024-05-09T01:54:09.333Z,9.79
2024-05-09T01:56:39.885Z,9.96
2024-05-09T01:59:10.608Z,10.06
2024-05-09T02:01:56.385Z,10.16
2024-05-09T02:04:28.453Z,10.08
2024-05-09T02:06:59.141Z,9.56
2024-05-09T02:09:32.442Z,9.38
2024-05-09T02:12:03.193Z,9.45
2024-05-09T02:14:33.881Z,9.43
2024-05-09T02:17:04.507Z,9.32
2024-05-09T02:19:35.127Z,9.63
2024-05-09T02:22:05.781Z,9.63
2024-05-09T02:24:38.989Z,9.61
2024-05-09T02:27:09.699Z,9.65
2024-05-09T02:29:40.388Z,9.42
2024-05-09T02:32:11.460Z,9.61
2024-05-09T02:34:42.204Z,9.73
2024-05-09T02:37:13.032Z,9.70
2024-05-09T02:39:43.493Z,9.45
2024-05-09T02:42:14.155Z,9.58
2024-05-09T02:44:41.914Z,9.55
2024-05-09T02:47:12.556Z,9.12
2024-05-09T02:49:40.788Z,9.08
2024-05-09T02:52:11.353Z,9.27
2024-05-09T02:54:39.230Z,9.42
2024-05-09T02:57:12.595Z,9.18
2024-05-09T02:59:40.700Z,9.09
2024-05-09T03:02:11.304Z,9.12
2024-05-09T03:04:41.882Z,9.25
2024-05-09T03:07:12.524Z,9.25
2024-05-09T03:09:47.391Z,8.89
2024-05-09T03:12:20.831Z,8.80
2024-05-09T03:14:51.187Z,9.08
2024-05-09T03:17:24.116Z,9.06
2024-05-09T03:19:52.425Z,9.14
2024-05-09T03:22:22.991Z,9.19
2024-05-09T03:24:50.916Z,9.11
2024-05-09T03:27:24.918Z,8.99
2024-05-09T03:29:52.954Z,8.80
2024-05-09T03:32:23.468Z,8.88
2024-05-09T03:34:51.414Z,8.81
2024-05-09T03:37:21.937Z,8.99
2024-05-09T03:39:52.599Z,9.02
2024-05-09T03:42:25.797Z,8.79
2024-05-09T03:44:56.626Z,8.51
2024-05-09T03:47:27.207Z,8.73
2024-05-09T03:49:57.932Z,8.92
2024-05-09T03:52:26.519Z,8.94
2024-05-09T03:54:57.426Z,9.02
2024-05-09T03:57:28.233Z,9.09
2024-05-09T03:59:58.756Z,9.10
2024-05-09T04:02:27.034Z,9.04
2024-05-09T04:04:57.794Z,9.08
2024-05-09T04:07:25.880Z,9.17
2024-05-09T04:09:56.393Z,9.25
2024-05-09T04:12:27.275Z,9.21
2024-05-09T04:14:58.096Z,8.83
2024-05-09T04:17:28.987Z,8.81
2024-05-09T04:19:57.059Z,8.65
2024-05-09T04:22:27.544Z,8.86
2024-05-09T04:24:55.534Z,8.95
2024-05-09T04:27:26.234Z,8.97
2024-05-09T04:29:57.196Z,8.95
2024-05-09T04:32:27.775Z,8.90
2024-05-09T04:34:56.070Z,8.97
2024-05-09T04:37:26.618Z,8.89
2024-05-09T04:39:54.834Z,8.86
2024-05-09T04:42:25.354Z,8.79
2024-05-09T04:44:58.773Z,8.77
2024-05-09T04:47:29.782Z,8.95
2024-05-09T04:49:58.155Z,9.00
2024-05-09T04:52:28.887Z,9.04
2024-05-09T04:54:58.975Z,9.07
2024-05-09T04:57:29.715Z,8.97
2024-05-09T05:00:04.074Z,8.81
2024-05-09T05:02:38.567Z,8.79
2024-05-09T05:05:07.870Z,8.89
2024-05-09T05:07:42.736Z,9.07
2024-05-09T05:10:15.031Z,9.18
2024-05-09T05:13:07.834Z,9.23
2024-05-09T05:15:41.163Z,9.40
2024-05-09T05:18:09.526Z,9.33
2024-05-09T05:20:40.187Z,9.46
2024-05-09T05:23:12.545Z,9.47
2024-05-09T05:25:43.645Z,9.35
2024-05-09T05:28:11.812Z,9.45
2024-05-09T05:30:45.627Z,9.53
2024-05-09T05:33:16.141Z,9.47
2024-05-09T05:35:47.612Z,9.72
2024-05-09T05:38:15.940Z,9.93
2024-05-09T05:40:46.725Z,9.86
2024-05-09T05:43:18.926Z,10.10
2024-05-09T05:45:52.210Z,10.10
2024-05-09T05:48:20.179Z,10.31
2024-05-09T05:50:52.128Z,10.48
2024-05-09T05:53:20.272Z,10.62
2024-05-09T05:55:50.800Z,10.71
2024-05-09T05:58:20.403Z,10.86
2024-05-09T06:00:55.911Z,10.99
2024-05-09T06:03:23.920Z,11.12
2024-05-09T06:05:54.411Z,11.25
2024-05-09T06:08:22.271Z,11.38
2024-05-09T06:10:52.953Z,11.50
2024-05-09T06:13:20.866Z,11.64
2024-05-09T06:15:54.107Z,11.73
2024-05-09T06:18:22.374Z,11.89
2024-05-09T06:20:53.364Z,12.02
2024-05-09T06:23:22.099Z,12.16
2024-05-09T06:25:53.454Z,12.34
2024-05-09T06:28:26.363Z,12.53
2024-05-09T06:31:01.380Z,12.73
2024-05-09T06:33:29.913Z,12.96
2024-05-09T06:36:02.031Z,13.20
2024-05-09T06:38:30.343Z,13.46
2024-05-09T06:41:01.436Z,13.68
2024-05-09T06:43:29.990Z,13.87
2024-05-09T06:46:04.213Z,14.05
2024-05-09T06:48:33.001Z,14.27
2024-05-09T06:51:06.463Z,14.42
2024-05-09T06:53:34.476Z,14.57
2024-05-09T06:56:07.455Z,14.65
2024-05-09T06:58:36.021Z,14.71
2024-05-09T07:01:10.642Z,14.75
2024-05-09T07:03:42.510Z,14.81
2024-05-09T07:06:18.287Z,14.87
2024-05-09T07:08:51.880Z,14.94
2024-05-09T07:11:24.289Z,15.00
2024-05-09T07:13:57.376Z,15.07
2024-05-09T07:16:33.052Z,15.14
2024-05-09T07:19:02.416Z,15.22
2024-05-09T07:21:34.187Z,15.26
2024-05-09T07:24:04.585Z,15.32
2024-05-09T07:26:35.371Z,15.38
2024-05-09T07:29:03.401Z,15.45
2024-05-09T07:31:38.630Z,15.46
2024-05-09T07:34:06.758Z,15.44
2024-05-09T07:36:37.700Z,15.41
2024-05-09T07:39:05.760Z,15.43
2024-05-09T07:41:37.273Z,15.49
2024-05-09T07:44:06.367Z,15.58
2024-05-09T07:47:47.676Z,15.74
2024-05-09T07:53:25.366Z,16.00
2024-05-09T07:54:49.954Z,16.18
2024-05-09T07:57:20.747Z,16.29
2024-05-09T07:59:48.685Z,16.40
2024-05-09T08:02:22.209Z,16.53
2024-05-09T08:04:50.194Z,16.57
2024-05-09T08:07:20.992Z,16.52
2024-05-09T08:09:48.950Z,16.67
2024-05-09T08:12:19.535Z,16.76
2024-05-09T08:14:47.702Z,16.81
2024-05-09T08:17:21.508Z,17.01
2024-05-09T08:19:49.583Z,17.07
2024-05-09T08:22:20.246Z,17.14
2024-05-09T08:24:48.589Z,17.09
2024-05-09T08:27:19.608Z,17.17
2024-05-09T08:29:47.580Z,17.39
2024-05-09T08:32:18.183Z,17.45
2024-05-09T08:34:48.994Z,17.46
2024-05-09T08:37:23.201Z,17.31
2024-05-09T08:39:53.647Z,17.13
2024-05-09T08:42:26.661Z,16.97
2024-05-09T08:44:54.630Z,16.83
2024-05-09T08:47:25.256Z,16.72
2024-05-09T08:50:00.780Z,16.68
2024-05-09T08:52:31.439Z,16.60
2024-05-09T08:55:00.864Z,16.58
2024-05-09T08:57:33.537Z,16.62
2024-05-09T09:00:10.221Z,16.87
2024-05-09T09:02:47.720Z,16.95
2024-05-09T09:05:21.662Z,17.03
2024-05-09T09:07:52.601Z,17.07
2024-05-09T09:10:29.502Z,17.05
2024-05-09T09:13:09.562Z,17.12
2024-05-09T09:15:48.142Z,17.15
2024-05-09T09:18:19.611Z,17.15
2024-05-09T09:20:50.528Z,17.18
2024-05-09T09:23:21.287Z,17.37
2024-05-09T09:25:50.222Z,17.65
2024-05-09T09:28:20.882Z,18.11
2024-05-09T09:30:52.984Z,18.30
2024-05-09T09:33:23.977Z,18.66
2024-05-09T09:35:56.555Z,19.12
2024-05-09T09:38:34.567Z,19.16
2024-05-09T09:41:08.352Z,18.92
2024-05-09T09:43:42.371Z,18.95
2024-05-09T09:46:13.902Z,19.33
2024-05-09T09:48:47.063Z,19.57
2024-05-09T09:51:19.849Z,19.74
2024-05-09T09:53:55.619Z,20.08
2024-05-09T09:56:25.375Z,20.41
2024-05-09T09:59:01.728Z,20.61
2024-05-09T10:01:31.669Z,20.33
2024-05-09T10:04:04.474Z,19.89
2024-05-09T10:06:42.938Z,19.65
2024-05-09T10:09:18.367Z,19.54
2024-05-09T10:11:51.848Z,19.82
2024-05-09T10:14:26.324Z,20.07
2024-05-09T10:17:05.517Z,20.48
2024-05-09T10:19:37.456Z,20.70
2024-05-09T10:22:09.263Z,20.93
2024-05-09T10:24:55.566Z,20.83
2024-05-09T10:27:31.162Z,20.97
2024-05-09T10:30:06.922Z,21.24
2024-05-09T10:32:41.488Z,21.11
2024-05-09T10:35:15.147Z,20.87
2024-05-09T10:37:46.782Z,20.57
2024-05-09T10:40:26.029Z,20.26
2024-05-09T10:43:03.491Z,19.81
2024-05-09T10:45:38.474Z,19.87
2024-05-09T10:48:08.998Z,20.25
2024-05-09T10:50:43.820Z,20.64
2024-05-09T10:53:14.439Z,20.85
2024-05-09T10:55:44.851Z,20.98
2024-05-09T10:58:18.178Z,21.07
2024-05-09T11:00:48.823Z,21.25
2024-05-09T11:03:19.209Z,21.45
2024-05-09T11:05:50.267Z,21.50
2024-05-09T11:08:22.330Z,21.70
2024-05-09T11:10:55.891Z,21.87
2024-05-09T11:13:31.298Z,21.78
2024-05-09T11:16:03.424Z,21.74
2024-05-09T11:18:36.541Z,21.55
2024-05-09T11:21:15.825Z,21.71
2024-05-09T11:23:47.231Z,21.70
2024-05-09T11:26:19.698Z,21.75
2024-05-09T11:28:48.323Z,21.74
2024-05-09T11:31:19.158Z,21.76
2024-05-09T11:33:47.474Z,21.85
2024-05-09T11:36:20.634Z,21.87
2024-05-09T11:38:51.944Z,21.94
2024-05-09T11:41:22.441Z,21.94
2024-05-09T11:43:50.324Z,21.86
2024-05-09T11:46:22.497Z,21.85
2024-05-09T11:48:51.093Z,21.67
2024-05-09T11:51:22.656Z,21.88
2024-05-09T11:53:53.380Z,21.97
2024-05-09T11:56:24.316Z,22.11
2024-05-09T11:58:53.297Z,22.20
2024-05-09T12:01:26.956Z,22.29
2024-05-09T12:03:55.979Z,22.24
2024-05-09T12:06:27.359Z,22.36
2024-05-09T12:08:58.075Z,22.53
2024-05-09T12:11:36.416Z,22.64
2024-05-09T12:14:05.615Z,22.68
2024-05-09T12:16:36.439Z,22.88
2024-05-09T12:19:04.602Z,22.97
2024-05-09T12:21:36.290Z,22.94
2024-05-09T12:24:06.904Z,23.01
2024-05-09T12:26:37.687Z,23.26
2024-05-09T12:29:05.675Z,23.28
2024-05-09T12:31:36.457Z,23.33
2024-05-09T12:34:05.211Z,23.43
2024-05-09T12:36:35.969Z,23.46
2024-05-09T12:39:06.590Z,23.31
2024-05-09T12:41:37.373Z,23.27
2024-05-09T12:44:05.785Z,23.27
2024-05-09T12:46:38.391Z,23.40
2024-05-09T12:49:14.999Z,23.65
2024-05-09T12:51:48.533Z,23.66
2024-05-09T12:54:20.097Z,23.60
2024-05-09T12:56:50.780Z,24.07
2024-05-09T12:59:19.118Z,24.11
2024-05-09T13:01:49.702Z,24.30
2024-05-09T13:04:17.926Z,24.54
2024-05-09T13:06:51.006Z,24.58
2024-05-09T13:09:22.434Z,24.92
2024-05-09T13:11:53.756Z,25.39
2024-05-09T13:14:21.976Z,25.77
2024-05-09T13:16:53.266Z,25.92
2024-05-09T13:19:21.327Z,26.31
2024-05-09T13:21:52.703Z,26.46
2024-05-09T13:24:23.769Z,26.80
2024-05-09T13:26:54.701Z,27.00
2024-05-09T13:29:22.635Z,27.33
2024-05-09T13:31:53.044Z,27.93
2024-05-09T13:34:21.030Z,28.53
2024-05-09T13:36:51.693Z,28.98
2024-05-09T13:39:19.533Z,28.74
2024-05-09T13:41:52.646Z,29.35
2024-05-09T13:44:20.539Z,29.70
2024-05-09T13:46:51.133Z,30.42
2024-05-09T13:49:19.160Z,30.78
2024-05-09T13:51:49.826Z,31.36
2024-05-09T13:54:20.057Z,31.33
2024-05-09T13:56:55.263Z,31.73
2024-05-09T13:59:23.185Z,31.57
2024-05-09T14:01:55.580Z,31.59
2024-05-09T14:04:23.727Z,31.99
2024-05-09T14:06:55.448Z,31.78
2024-05-09T14:09:23.634Z,32.46
2024-05-09T14:11:56.838Z,32.84
2024-05-09T14:14:25.015Z,32.59
2024-05-09T14:16:55.702Z,31.31
2024-05-09T14:19:23.596Z,32.37
2024-05-09T14:21:54.326Z,32.40
2024-05-09T14:24:22.594Z,32.64
2024-05-09T14:26:55.790Z,32.44
2024-05-09T14:29:23.622Z,31.89
2024-05-09T14:31:54.177Z,32.58
2024-05-09T14:34:22.101Z,32.90
2024-05-09T14:36:52.893Z,33.29
2024-05-09T14:39:20.760Z,33.81
2024-05-09T14:41:51.534Z,34.02
2024-05-09T14:44:21.993Z,33.14
2024-05-09T14:46:52.809Z,33.53
2024-05-09T14:49:20.846Z,34.08
2024-05-09T14:51:54.016Z,34.34
2024-05-09T14:54:21.838Z,34.21
2024-05-09T14:56:54.887Z,33.27
2024-05-09T14:59:25.382Z,32.72
2024-05-09T15:01:56.015Z,31.66
2024-05-09T15:04:24.136Z,31.13
2024-05-09T15:06:58.928Z,30.68
2024-05-09T15:09:36.790Z,30.15
2024-05-09T15:12:09.416Z,30.05
2024-05-09T15:14:40.040Z,30.03
2024-05-09T15:17:10.629Z,29.50
2024-05-09T15:19:38.747Z,28.98
2024-05-09T15:22:11.736Z,28.42
2024-05-09T15:24:42.039Z,29.08
2024-05-09T15:27:12.891Z,29.63
2024-05-09T15:29:43.476Z,29.78
2024-05-09T15:32:14.749Z,29.90
2024-05-09T15:34:42.738Z,29.51
2024-05-09T15:37:13.329Z,29.19
2024-05-09T15:39:41.373Z,28.75
2024-05-09T15:42:12.416Z,28.32
2024-05-09T15:44:45.172Z,28.88
2024-05-09T15:47:15.713Z,29.25
2024-05-09T15:49:43.683Z,29.02
2024-05-09T15:52:14.370Z,28.61
2024-05-09T15:54:42.438Z,28.27
2024-05-09T15:57:13.229Z,27.95
2024-05-09T15:59:43.845Z,28.03
2024-05-09T16:02:14.667Z,28.25
2024-05-09T16:04:42.874Z,28.23
2024-05-09T16:07:13.669Z,28.64
2024-05-09T16:09:41.648Z,28.22
2024-05-09T16:12:12.172Z,27.70
2024-05-09T16:14:42.739Z,26.60
2024-05-09T16:17:13.660Z,26.11
2024-05-09T16:19:41.723Z,25.46
2024-05-09T16:22:12.277Z,24.85
2024-05-09T16:24:40.358Z,24.45
2024-05-09T16:27:10.859Z,24.17
2024-05-09T16:29:39.084Z,23.60
2024-05-09T16:32:12.537Z,23.59
2024-05-09T16:34:40.590Z,23.36
2024-05-09T16:37:12.672Z,23.29
2024-05-09T16:39:40.700Z,22.96
2024-05-09T16:42:11.208Z,22.98
2024-05-09T16:44:39.036Z,23.00
2024-05-09T16:47:12.229Z,22.97
2024-05-09T16:49:40.088Z,22.69
2024-05-09T16:52:11.034Z,22.52
2024-05-09T16:54:41.234Z,22.62
2024-05-09T16:57:14.017Z,22.23
2024-05-09T16:59:45.272Z,22.12
2024-05-09T17:02:17.103Z,21.99
2024-05-09T17:04:48.207Z,21.90
2024-05-09T17:07:16.509Z,21.52
2024-05-09T17:09:47.471Z,21.52
2024-05-09T17:12:18.098Z,21.43
2024-05-09T17:14:48.608Z,21.36
2024-05-09T17:17:22.825Z,21.08
2024-05-09T17:19:50.678Z,20.94
2024-05-09T17:22:21.250Z,20.92
2024-05-09T17:24:49.395Z,20.86
2024-05-09T17:27:20.185Z,20.56
2024-05-09T17:29:48.177Z,20.43
2024-05-09T17:32:21.922Z,20.38
2024-05-09T17:34:50.270Z,20.30
2024-05-09T17:37:21.636Z,20.11
2024-05-09T17:39:49.595Z,19.92
2024-05-09T17:42:20.200Z,19.80
2024-05-09T17:44:48.348Z,19.75
2024-05-09T17:47:22.075Z,19.68
2024-05-09T17:49:53.060Z,19.53
2024-05-09T17:52:21.089Z,19.40
2024-05-09T17:54:51.824Z,19.27
2024-05-09T17:57:19.992Z,19.49
2024-05-09T17:59:52.110Z,19.68
2024-05-09T18:02:22.725Z,19.54
2024-05-09T18:04:53.612Z,19.47
2024-05-09T18:07:22.815Z,19.27
2024-05-09T18:09:53.996Z,19.51
2024-05-09T18:12:22.304Z,19.32
2024-05-09T18:14:53.642Z,19.19
2024-05-09T18:17:25.859Z,18.93
2024-05-09T18:19:57.253Z,18.87
2024-05-09T18:22:25.407Z,18.91
2024-05-09T18:24:56.230Z,18.82
2024-05-09T18:27:24.143Z,18.67
2024-05-09T18:29:54.619Z,18.60
2024-05-09T18:32:25.150Z,18.48
2024-05-09T18:34:56.057Z,18.17
2024-05-09T18:37:24.492Z,18.22
2024-05-09T18:39:55.114Z,18.19
2024-05-09T18:42:23.651Z,17.96
2024-05-09T18:44:54.278Z,17.74
2024-05-09T18:47:25.413Z,17.62
2024-05-09T18:49:56.946Z,17.51
2024-05-09T18:52:27.240Z,17.35
2024-05-09T18:54:58.644Z,17.49
2024-05-09T18:57:27.131Z,17.37
2024-05-09T18:59:58.161Z,17.26
2024-05-09T19:02:29.422Z,17.20
2024-05-09T19:05:01.375Z,17.02
2024-05-09T19:07:31.802Z,16.99
2024-05-09T19:10:05.575Z,17.00
2024-05-09T19:12:41.491Z,16.88
2024-05-09T19:15:12.514Z,16.92
2024-05-09T19:17:43.373Z,16.70
2024-05-09T19:20:24.871Z,16.67
2024-05-09T19:22:57.106Z,16.61
2024-05-09T19:25:27.930Z,16.62
2024-05-09T19:27:57.163Z,16.39
2024-05-09T19:30:36.843Z,16.31
2024-05-09T19:33:12.973Z,16.26
2024-05-09T19:35:44.767Z,16.32
2024-05-09T19:38:13.686Z,16.27
2024-05-09T19:40:45.075Z,16.16
2024-05-09T19:43:13.534Z,16.12
2024-05-09T19:45:44.188Z,16.11
2024-05-09T19:48:15.708Z,16.17
2024-05-09T19:50:48.352Z,15.93
2024-05-09T19:53:18.851Z,15.91
2024-05-09T19:55:49.526Z,15.98
2024-05-09T19:58:18.044Z,15.76
2024-05-09T20:00:48.824Z,15.61
2024-05-09T20:03:20.395Z,15.56
2024-05-09T20:05:51.479Z,15.52
2024-05-09T20:08:19.797Z,15.70
2024-05-09T20:10:50.647Z,15.54
2024-05-09T20:13:19.054Z,15.55
2024-05-09T20:15:49.656Z,15.49
2024-05-09T20:18:20.638Z,15.38
2024-05-09T20:20:53.910Z,15.32
2024-05-09T20:23:22.190Z,15.36
2024-05-09T20:25:53.610Z,15.23
2024-05-09T20:28:21.678Z,15.17
2024-05-09T20:30:52.949Z,15.22
2024-05-09T20:33:23.770Z,15.18
2024-05-09T20:35:55.681Z,15.02
2024-05-09T20:38:23.919Z,15.06
2024-05-09T20:40:55.240Z,15.01
2024-05-09T20:43:23.362Z,14.94
2024-05-09T20:45:54.092Z,14.95
2024-05-09T20:48:25.043Z,14.80
2024-05-09T20:50:56.825Z,14.80
2024-05-09T20:53:24.866Z,14.81
2024-05-09T20:55:55.761Z,14.70
2024-05-09T20:58:23.943Z,14.73
2024-05-09T21:00:55.752Z,14.78
2024-05-09T21:03:26.489Z,14.52
2024-05-09T21:05:57.105Z,14.54
2024-05-09T21:08:26.922Z,14.56
2024-05-09T21:11:00.717Z,14.39
2024-05-09T21:13:28.998Z,14.41
2024-05-09T21:15:59.646Z,14.37
2024-05-09T21:18:30.262Z,14.22
2024-05-09T21:21:00.743Z,14.23
2024-05-09T21:23:28.555Z,14.35
2024-05-09T21:25:59.296Z,14.34
2024-05-09T21:28:27.213Z,14.06
2024-05-09T21:30:57.852Z,13.80
2024-05-09T21:33:28.463Z,13.95
2024-05-09T21:35:59.341Z,13.93
2024-05-09T21:38:27.226Z,13.63
2024-05-09T21:40:57.985Z,13.72
2024-05-09T21:43:28.794Z,13.88
2024-05-09T21:45:59.300Z,13.67
2024-05-09T21:48:29.895Z,13.94
2024-05-09T21:51:00.432Z,13.88
2024-05-09T21:53:28.260Z,13.84
2024-05-09T21:55:58.681Z,13.62
2024-05-09T21:58:26.723Z,13.59
2024-05-09T22:00:57.591Z,13.49
2024-05-09T22:03:25.586Z,13.55
2024-05-09T22:05:58.781Z,13.46
2024-05-09T22:11:24.441Z,13.41
2024-05-09T22:13:52.257Z,13.46
2024-05-09T22:16:23.386Z,13.37
2024-05-09T22:18:51.376Z,13.50
2024-05-09T22:21:24.596Z,13.48
2024-05-09T22:23:53.048Z,13.25
2024-05-09T22:26:23.661Z,13.21
2024-05-09T22:28:51.540Z,13.26
2024-05-09T22:31:22.210Z,13.24
2024-05-09T22:33:50.351Z,13.26
2024-05-09T22:36:23.570Z,13.25
2024-05-09T22:38:51.388Z,13.11
2024-05-09T22:41:22.022Z,12.94
2024-05-09T22:43:49.850Z,12.86
2024-05-09T22:46:20.495Z,13.02
2024-05-09T22:48:48.567Z,12.99
2024-05-09T22:51:19.213Z,12.73
2024-05-09T22:53:49.715Z,12.63
2024-05-09T22:56:30.183Z,12.72
2024-05-09T22:58:58.291Z,12.89
2024-05-09T23:01:28.897Z,12.89
2024-05-09T23:03:56.991Z,12.97
2024-05-09T23:06:27.571Z,12.87
2024-05-09T23:08:58.102Z,12.71
2024-05-09T23:11:28.672Z,12.79
2024-05-09T23:13:56.567Z,12.70
2024-05-09T23:16:27.076Z,12.65
2024-05-09T23:18:55.075Z,12.75
2024-05-09T23:21:25.623Z,12.62
2024-05-09T23:23:53.596Z,12.30
2024-05-09T23:26:26.776Z,12.35
2024-05-09T23:28:54.628Z,12.47
2024-05-09T23:31:25.225Z,12.34
2024-05-09T23:33:55.279Z,12.55
2024-05-09T23:36:25.850Z,12.67
2024-05-09T23:38:53.684Z,12.53
2024-05-09T23:41:27.074Z,12.32
2024-05-09T23:43:54.973Z,12.60
2024-05-09T23:46:25.892Z,12.54
2024-05-09T23:48:54.009Z,12.53
2024-05-09T23:51:24.743Z,12.38
2024-05-09T23:53:52.639Z,12.24
2024-05-09T23:56:23.847Z,12.23
2024-05-09T23:58:54.383Z,12.26
